Time;durP1;ratioP1;P1;durP2;ratioP2;P2;SDS_P1;SDS_P2;PMS_P1;PMS_P2;Temp;Humidity;BMP_temperature;BMP_pressure;BME280_temperature;BME280_humidity;BME280_pressure;Samples;Min_cycle;Max_cycle;Signal;HPM_P1;HPM_P2
2022/05/17 00:00:57;;;;;;;28.58;10.93;;;;;;;;;;5063340;28;20325;-71
2022/05/17 00:03:23;;;;;;;32.22;10.40;;;;;;;;;;5071606;28;20045;-69
2022/05/17 00:05:49;;;;;;;;;;;;;;;;;;5069473;28;20056;-70
2022/05/17 00:08:16;;;;;;;33.40;11.50;;;;;;;;;;5069117;28;20279;-70
2022/05/17 00:10:42;;;;;;;30.20;11.27;;;;;;;;;;5064251;28;20100;-70
2022/05/17 00:13:08;;;;;;;;;;;;;;;;;;5062715;28;20076;-70
2022/05/17 00:15:35;;;;;;;33.08;10.77;;;;;;;;;;5067656;28;19986;-69
2022/05/17 00:18:03;;;;;;;24.90;10.20;;;;;;;;;;5068687;28;20362;-70
2022/05/17 00:20:29;;;;;;;27.17;10.95;;;;;;;;;;5042290;28;20101;-69
2022/05/17 00:22:55;;;;;;;;;;;;;;;;;;5083849;28;20056;-70
2022/05/17 00:25:22;;;;;;;28.30;9.95;;;;;;;;;;5089403;28;19984;-72
2022/05/17 00:27:48;;;;;;;34.00;10.45;;;;;;;;;;5085987;28;20054;-70
2022/05/17 00:30:14;;;;;;;31.92;9.93;;;;;;;;;;5065785;28;20153;-70
2022/05/17 00:32:40;;;;;;;;;;;;;;;;;;5040435;28;20052;-70
2022/05/17 00:35:08;;;;;;;27.58;9.50;;;;;;;;;;5090005;28;19946;-70
2022/05/17 00:37:34;;;;;;;27.67;8.98;;;;;;;;;;5089318;28;20117;-71
2022/05/17 00:40:00;;;;;;;30.10;9.95;;;;;;;;;;5086853;28;20062;-70
2022/05/17 00:42:26;;;;;;;;;;;;;;;;;;5057975;28;20082;-70
2022/05/17 00:44:52;;;;;;;26.42;8.82;;;;;;;;;;5065402;28;20019;-71
2022/05/17 00:47:56;;;;;;;29.35;9.45;;;;;;;;;;5068616;28;20416;-71
2022/05/17 00:50:36;;;;;;;29.00;9.65;;;;;;;;;;4966358;28;20166;-71
2022/05/17 00:53:06;;;;;;;33.15;9.40;;;;;;;;;;5023339;28;20152;-71
2022/05/17 00:55:40;;;;;;;30.42;9.27;;;;;;;;;;5030483;28;20427;-70
2022/05/17 00:58:17;;;;;;;29.52;9.50;;;;;;;;;;5048633;28;20542;-70
2022/05/17 01:00:45;;;;;;;27.98;9.63;;;;;;;;;;5059414;28;20173;-70
2022/05/17 01:03:14;;;;;;;32.22;10.27;;;;;;;;;;5072556;28;20393;-70
2022/05/17 01:05:43;;;;;;;32.63;10.18;;;;;;;;;;5067161;28;20140;-70
2022/05/17 01:08:10;;;;;;;29.63;10.07;;;;;;;;;;5068191;28;20059;-71
2022/05/17 01:10:37;;;;;;;25.52;9.68;;;;;;;;;;5034670;28;20140;-70
2022/05/17 01:15:48;;;;;;;29.83;10.70;;;;;;;;;;5067129;28;20049;-70
2022/05/17 01:18:14;;;;;;;29.63;10.95;;;;;;;;;;5067470;28;20373;-70
2022/05/17 01:20:40;;;;;;;30.13;11.80;;;;;;;;;;5055813;28;20460;-71
2022/05/17 01:23:06;;;;;;;32.00;12.07;;;;;;;;;;5054057;28;20066;-70
2022/05/17 01:25:34;;;;;;;33.58;11.82;;;;;;;;;;5067891;28;20066;-69
2022/05/17 01:27:59;;;;;;;31.35;11.43;;;;;;;;;;5073706;28;20079;-71
2022/05/17 01:30:27;;;;;;;29.02;12.75;;;;;;;;;;5079023;28;20126;-70
2022/05/17 01:32:53;;;;;;;34.75;12.98;;;;;;;;;;5064864;28;20063;-70
2022/05/17 01:35:19;;;;;;;35.78;11.98;;;;;;;;;;5049856;28;20045;-70
2022/05/17 01:37:46;;;;;;;30.83;12.30;;;;;;;;;;5064141;28;20072;-70
2022/05/17 01:40:12;;;;;;;33.17;12.23;;;;;;;;;;5067952;28;20048;-71
2022/05/17 01:42:39;;;;;;;32.55;12.45;;;;;;;;;;5048029;28;20049;-70
2022/05/17 01:45:06;;;;;;;;;;;;;;;;;;5060730;28;20049;-70
2022/05/17 01:47:32;;;;;;;29.33;12.55;;;;;;;;;;5067899;28;19921;-71
2022/05/17 01:49:58;;;;;;;;;;;;;;;;;;5067595;28;20048;-70
2022/05/17 01:52:24;;;;;;;37.50;12.75;;;;;;;;;;5055971;28;20432;-71
2022/05/17 01:54:50;;;;;;;31.45;11.75;;;;;;;;;;5054486;28;20055;-71
2022/05/17 01:57:16;;;;;;;31.05;12.77;;;;;;;;;;5085059;28;20130;-71
2022/05/17 01:59:42;;;;;;;31.77;12.43;;;;;;;;;;5067286;28;20049;-70
2022/05/17 02:02:08;;;;;;;32.05;12.43;;;;;;;;;;5065274;28;20479;-71
2022/05/17 02:04:34;;;;;;;35.88;12.52;;;;;;;;;;5083259;28;20062;-71
2022/05/17 02:07:01;;;;;;;35.75;13.20;;;;;;;;;;5087285;28;20066;-71
2022/05/17 02:09:27;;;;;;;38.17;12.38;;;;;;;;;;5060210;28;20060;-71
2022/05/17 02:11:54;;;;;;;32.00;11.50;;;;;;;;;;5046928;28;20060;-71
2022/05/17 02:14:20;;;;;;;26.08;11.85;;;;;;;;;;5052883;28;20048;-71
2022/05/17 02:16:46;;;;;;;;;;;;;;;;;;5087574;28;20052;-71
2022/05/17 02:19:12;;;;;;;30.80;12.10;;;;;;;;;;5086233;28;19928;-71
2022/05/17 02:21:39;;;;;;;33.22;11.70;;;;;;;;;;5050683;28;20153;-71
2022/05/17 02:24:06;;;;;;;33.08;12.55;;;;;;;;;;5044995;28;20191;-71
2022/05/17 02:26:33;;;;;;;26.70;11.48;;;;;;;;;;5066372;28;20052;-71
2022/05/17 02:28:59;;;;;;;30.23;11.30;;;;;;;;;;5066894;28;20500;-70
2022/05/17 02:31:25;;;;;;;;;;;;;;;;;;5067967;28;20124;-71
2022/05/17 02:33:51;;;;;;;29.17;11.52;;;;;;;;;;5065253;28;20379;-70
2022/05/17 02:36:17;;;;;;;28.10;10.35;;;;;;;;;;5065227;28;20107;-71
2022/05/17 02:38:43;;;;;;;22.90;11.02;;;;;;;;;;5065921;28;20187;-70
2022/05/17 02:41:10;;;;;;;28.13;12.40;;;;;;;;;;5070244;28;20106;-70
2022/05/17 02:43:37;;;;;;;26.92;10.85;;;;;;;;;;5070951;28;20045;-70
2022/05/17 02:46:03;;;;;;;32.58;12.35;;;;;;;;;;5070537;28;20529;-70
2022/05/17 02:48:29;;;;;;;;;;;;;;;;;;5091544;28;20044;-70
2022/05/17 02:50:55;;;;;;;25.83;11.07;;;;;;;;;;5088289;28;20405;-70
2022/05/17 02:53:21;;;;;;;30.25;12.15;;;;;;;;;;5091257;28;20189;-70
2022/05/17 02:55:47;;;;;;;27.30;11.45;;;;;;;;;;5075798;28;20045;-70
2022/05/17 02:58:13;;;;;;;;;;;;;;;;;;5070433;28;20063;-70
2022/05/17 03:00:39;;;;;;;30.58;11.40;;;;;;;;;;5084467;28;19955;-71
2022/05/17 03:03:07;;;;;;;26.80;11.80;;;;;;;;;;5082627;28;20083;-70
2022/05/17 03:05:33;;;;;;;30.02;11.38;;;;;;;;;;5086226;28;20067;-70
2022/05/17 03:07:59;;;;;;;28.95;11.23;;;;;;;;;;5058517;28;20173;-70
2022/05/17 03:10:29;;;;;;;26.02;10.63;;;;;;;;;;5070406;28;20145;-70
2022/05/17 03:12:55;;;;;;;29.30;12.18;;;;;;;;;;5051984;28;20121;-70
2022/05/17 03:15:21;;;;;;;33.55;11.95;;;;;;;;;;5070473;28;20044;-70
2022/05/17 03:17:48;;;;;;;30.50;10.98;;;;;;;;;;5067080;28;20138;-70
2022/05/17 03:20:14;;;;;;;33.92;11.70;;;;;;;;;;5090552;28;20124;-70
2022/05/17 03:22:40;;;;;;;26.98;10.88;;;;;;;;;;5090639;28;20056;-70
2022/05/17 03:25:06;;;;;;;29.50;10.95;;;;;;;;;;5089766;28;20044;-70
2022/05/17 03:27:32;;;;;;;30.92;10.57;;;;;;;;;;5060093;28;20128;-70
2022/05/17 03:29:58;;;;;;;27.10;10.50;;;;;;;;;;5069186;28;20102;-70
2022/05/17 03:32:24;;;;;;;25.08;10.07;;;;;;;;;;5076111;28;20048;-70
2022/05/17 03:34:50;;;;;;;26.40;10.98;;;;;;;;;;5075398;28;20348;-70
2022/05/17 03:37:16;;;;;;;24.98;10.82;;;;;;;;;;5068396;28;20080;-70
2022/05/17 03:39:42;;;;;;;31.85;11.60;;;;;;;;;;5051020;28;20049;-70
2022/05/17 03:42:09;;;;;;;32.75;11.27;;;;;;;;;;5051006;28;20618;-70
2022/05/17 03:44:38;;;;;;;32.28;10.48;;;;;;;;;;5069210;28;20112;-70
2022/05/17 03:47:05;;;;;;;28.02;11.13;;;;;;;;;;5068038;28;20051;-70
2022/05/17 03:49:31;;;;;;;22.00;9.65;;;;;;;;;;5036961;28;20116;-70
2022/05/17 03:51:57;;;;;;;24.65;10.52;;;;;;;;;;5076376;28;20080;-70
2022/05/17 03:54:25;;;;;;;26.67;10.68;;;;;;;;;;5088734;28;20036;-70
2022/05/17 03:56:51;;;;;;;23.75;9.73;;;;;;;;;;5088433;28;20134;-70
2022/05/17 03:59:17;;;;;;;;;;;;;;;;;;5074532;28;20140;-70
2022/05/17 04:01:44;;;;;;;25.77;10.00;;;;;;;;;;5063996;28;20390;-70
2022/05/17 04:04:11;;;;;;;25.27;9.70;;;;;;;;;;5078187;28;20051;-70
2022/05/17 04:06:37;;;;;;;23.67;9.77;;;;;;;;;;5087987;28;20154;-70
2022/05/17 04:09:04;;;;;;;23.13;9.27;;;;;;;;;;5087757;28;20063;-70
2022/05/17 04:11:30;;;;;;;26.60;9.70;;;;;;;;;;5048359;28;20100;-71
2022/05/17 04:13:56;;;;;;;25.92;8.93;;;;;;;;;;5050852;28;20138;-70
2022/05/17 04:16:22;;;;;;;24.48;9.40;;;;;;;;;;5068099;28;20048;-70
2022/05/17 04:18:48;;;;;;;25.15;9.90;;;;;;;;;;5049815;28;20059;-70
2022/05/17 04:21:14;;;;;;;27.92;10.07;;;;;;;;;;5036821;28;20048;-71
2022/05/17 04:23:41;;;;;;;;;;;;;;;;;;5048295;28;20041;-70
2022/05/17 04:26:07;;;;;;;28.75;9.40;;;;;;;;;;5062300;28;20053;-70
2022/05/17 04:28:33;;;;;;;27.30;10.25;;;;;;;;;;5072418;28;20071;-71
2022/05/17 04:30:59;;;;;;;23.60;9.65;;;;;;;;;;5087493;28;20043;-70
2022/05/17 04:33:25;;;;;;;26.60;9.45;;;;;;;;;;5078622;28;20040;-71
2022/05/17 04:35:52;;;;;;;27.13;9.13;;;;;;;;;;5087765;28;20047;-71
2022/05/17 04:38:18;;;;;;;28.08;10.00;;;;;;;;;;5069381;28;20091;-70
2022/05/17 04:40:44;;;;;;;29.35;10.00;;;;;;;;;;5073181;28;20040;-70
2022/05/17 04:43:10;;;;;;;22.15;8.75;;;;;;;;;;5067122;28;20510;-69
2022/05/17 04:45:37;;;;;;;24.80;8.50;;;;;;;;;;5080767;28;20041;-69
2022/05/17 04:48:03;;;;;;;27.23;9.73;;;;;;;;;;5076946;28;20170;-69
2022/05/17 04:50:29;;;;;;;26.20;9.02;;;;;;;;;;5035302;28;20192;-70
2022/05/17 04:52:56;;;;;;;26.23;9.38;;;;;;;;;;5078236;28;20102;-70
2022/05/17 04:55:23;;;;;;;25.25;8.50;;;;;;;;;;5087058;28;20071;-70
2022/05/17 04:57:49;;;;;;;29.58;9.13;;;;;;;;;;5069150;28;20337;-71
2022/05/17 05:00:19;;;;;;;22.92;8.88;;;;;;;;;;5057194;28;20041;-69
2022/05/17 05:02:45;;;;;;;23.23;9.02;;;;;;;;;;5073507;28;20160;-70
2022/05/17 05:05:11;;;;;;;21.63;8.95;;;;;;;;;;5069380;28;20036;-69
2022/05/17 05:07:37;;;;;;;22.85;8.32;;;;;;;;;;5066789;28;20088;-69
2022/05/17 05:10:04;;;;;;;28.65;8.82;;;;;;;;;;5080805;28;20521;-67
2022/05/17 05:12:31;;;;;;;26.30;8.40;;;;;;;;;;5048165;28;20041;-69
2022/05/17 05:14:57;;;;;;;27.77;8.77;;;;;;;;;;5051127;28;20223;-69
2022/05/17 05:17:23;;;;;;;24.33;8.05;;;;;;;;;;5076220;28;20122;-69
2022/05/17 05:19:49;;;;;;;27.90;8.45;;;;;;;;;;5071361;28;20059;-70
2022/05/17 05:22:15;;;;;;;27.33;9.73;;;;;;;;;;5047454;28;20072;-70
2022/05/17 05:24:41;;;;;;;26.58;8.65;;;;;;;;;;5050255;28;20040;-69
2022/05/17 05:27:07;;;;;;;24.92;8.10;;;;;;;;;;5041748;28;20045;-71
2022/05/17 05:29:34;;;;;;;22.95;8.40;;;;;;;;;;5055744;28;20049;-69
2022/05/17 05:32:00;;;;;;;23.17;8.82;;;;;;;;;;5046807;28;20488;-69
2022/05/17 05:34:27;;;;;;;25.00;8.13;;;;;;;;;;5063706;28;20143;-68
2022/05/17 05:36:54;;;;;;;25.10;8.85;;;;;;;;;;5075005;28;20460;-69
2022/05/17 05:39:21;;;;;;;29.85;9.18;;;;;;;;;;5075913;28;20141;-71
2022/05/17 05:41:48;;;;;;;24.30;9.32;;;;;;;;;;5063633;28;20151;-70
2022/05/17 05:44:14;;;;;;;21.17;8.50;;;;;;;;;;5086239;28;20063;-69
2022/05/17 05:46:40;;;;;;;;;;;;;;;;;;5072667;28;20090;-69
2022/05/17 05:49:06;;;;;;;29.92;11.57;;;;;;;;;;5065001;28;19920;-68
2022/05/17 05:51:32;;;;;;;29.00;9.77;;;;;;;;;;5065618;28;20127;-71
2022/05/17 05:53:58;;;;;;;31.60;12.68;;;;;;;;;;5066826;28;20411;-70
2022/05/17 05:56:24;;;;;;;26.83;9.85;;;;;;;;;;5063899;28;20044;-69
2022/05/17 05:58:50;;;;;;;31.58;10.02;;;;;;;;;;5062818;28;20337;-71
2022/05/17 06:01:16;;;;;;;24.48;8.95;;;;;;;;;;5048632;28;20516;-71
2022/05/17 06:03:43;;;;;;;24.42;8.88;;;;;;;;;;5079098;28;20085;-70
2022/05/17 06:06:09;;;;;;;24.38;9.63;;;;;;;;;;5073237;28;20136;-68
2022/05/17 06:08:35;;;;;;;;;;;;;;;;;;5082602;28;20550;-69
2022/05/17 06:11:01;;;;;;;26.42;9.60;;;;;;;;;;5081450;28;20002;-70
2022/05/17 06:13:28;;;;;;;29.17;9.23;;;;;;;;;;5082248;28;20097;-70
2022/05/17 06:15:54;;;;;;;22.98;8.48;;;;;;;;;;5075956;28;20068;-70
2022/05/17 06:18:20;;;;;;;24.15;8.35;;;;;;;;;;5069531;28;20044;-69
2022/05/17 06:20:46;;;;;;;;;;;;;;;;;;5063127;28;20457;-70
2022/05/17 06:23:12;;;;;;;28.80;8.98;;;;;;;;;;5080621;28;20010;-69
2022/05/17 06:25:38;;;;;;;;;;;;;;;;;;5071735;28;20151;-69
2022/05/17 06:28:05;;;;;;;23.60;8.32;;;;;;;;;;5069918;28;19996;-69
2022/05/17 06:30:31;;;;;;;23.88;7.90;;;;;;;;;;5069523;28;20052;-70
2022/05/17 06:32:58;;;;;;;25.33;8.48;;;;;;;;;;5051791;28;20101;-70
2022/05/17 06:35:24;;;;;;;24.15;8.15;;;;;;;;;;5066538;28;20066;-69
2022/05/17 06:37:50;;;;;;;24.38;8.13;;;;;;;;;;5070299;28;20160;-68
2022/05/17 06:40:16;;;;;;;25.52;7.93;;;;;;;;;;5065874;28;20398;-70
2022/05/17 06:42:42;;;;;;;20.75;6.90;;;;;;;;;;5050106;28;20053;-70
2022/05/17 06:45:09;;;;;;;29.13;7.97;;;;;;;;;;5049806;28;20041;-70
2022/05/17 06:47:35;;;;;;;32.55;7.60;;;;;;;;;;5049463;28;20088;-70
2022/05/17 06:50:01;;;;;;;23.45;7.47;;;;;;;;;;5049774;28;20069;-70
2022/05/17 06:52:27;;;;;;;25.27;7.88;;;;;;;;;;5048707;28;20053;-68
2022/05/17 06:54:55;;;;;;;22.95;7.60;;;;;;;;;;5051524;28;20057;-68
2022/05/17 06:57:21;;;;;;;20.35;6.30;;;;;;;;;;5049197;28;20049;-69
2022/05/17 06:59:47;;;;;;;21.38;6.90;;;;;;;;;;5031098;28;20091;-70
2022/05/17 07:02:14;;;;;;;21.08;6.88;;;;;;;;;;5050542;28;20052;-69
2022/05/17 07:04:40;;;;;;;27.00;8.38;;;;;;;;;;5031261;28;20063;-68
2022/05/17 07:07:07;;;;;;;26.65;6.88;;;;;;;;;;5049109;28;20090;-69
2022/05/17 07:09:34;;;;;;;24.75;6.53;;;;;;;;;;5049008;28;20145;-69
2022/05/17 07:14:45;;;;;;;25.08;6.80;;;;;;;;;;5049300;28;20148;-68
2022/05/17 07:17:11;;;;;;;;;;;;;;;;;;5049596;28;20136;-68
2022/05/17 07:19:37;;;;;;;22.15;7.20;;;;;;;;;;5048699;28;20008;-69
2022/05/17 07:22:03;;;;;;;;;;;;;;;;;;5031218;28;20053;-69
2022/05/17 07:24:29;;;;;;;23.75;7.15;;;;;;;;;;5048642;28;19921;-69
2022/05/17 07:26:55;;;;;;;21.95;7.28;;;;;;;;;;5048640;28;20048;-69
2022/05/17 07:29:21;;;;;;;24.35;7.72;;;;;;;;;;5050348;28;20115;-69
2022/05/17 07:31:47;;;;;;;;;;;;;;;;;;5049120;28;20076;-69
2022/05/17 07:34:13;;;;;;;22.23;6.93;;;;;;;;;;5055030;28;19954;-69
2022/05/17 07:36:40;;;;;;;25.90;7.70;;;;;;;;;;5068620;28;20154;-69
2022/05/17 07:39:06;;;;;;;;;;;;;;;;;;5069936;28;20048;-70
2022/05/17 07:41:32;;;;;;;22.85;7.00;;;;;;;;;;5068925;28;20336;-69
2022/05/17 07:43:58;;;;;;;;;;;;;;;;;;5037183;28;20398;-68
2022/05/17 07:46:25;;;;;;;24.13;7.15;;;;;;;;;;5057084;28;20026;-68
2022/05/17 07:48:51;;;;;;;21.92;7.30;;;;;;;;;;5048013;28;20504;-69
2022/05/17 07:51:17;;;;;;;23.52;7.65;;;;;;;;;;5048827;28;20476;-69
2022/05/17 07:53:43;;;;;;;21.02;7.07;;;;;;;;;;5048812;28;20049;-68
2022/05/17 07:56:09;;;;;;;26.77;7.50;;;;;;;;;;5048810;28;20049;-69
2022/05/17 07:58:35;;;;;;;21.73;7.38;;;;;;;;;;5030442;28;20052;-69
2022/05/17 08:01:02;;;;;;;;;;;;;;;;;;5049357;28;20049;-68
2022/05/17 08:03:29;;;;;;;21.85;6.95;;;;;;;;;;5048429;28;20004;-68
2022/05/17 08:05:55;;;;;;;21.80;6.82;;;;;;;;;;5048585;28;20100;-69
2022/05/17 08:08:21;;;;;;;20.90;7.05;;;;;;;;;;5049532;28;20155;-69
2022/05/17 08:10:47;;;;;;;;;;;;;;;;;;5050157;28;20498;-69
2022/05/17 08:13:16;;;;;;;20.95;6.40;;;;;;;;;;5047813;28;20004;-67
2022/05/17 08:15:43;;;;;;;20.40;6.75;;;;;;;;;;5048023;28;20104;-68
2022/05/17 08:18:09;;;;;;;20.80;7.85;;;;;;;;;;5048060;28;20052;-68
2022/05/17 08:20:36;;;;;;;18.45;6.45;;;;;;;;;;5047357;28;20508;-67
2022/05/17 08:23:03;;;;;;;21.27;7.28;;;;;;;;;;5047247;28;20128;-69
2022/05/17 08:28:14;;;;;;;20.85;7.05;;;;;;;;;;5047714;28;20421;-67
2022/05/17 08:30:40;;;;;;;;;;;;;;;;;;5047696;28;20051;-67
2022/05/17 08:33:17;;;;;;;21.38;7.47;;;;;;;;;;5047867;28;19924;-67
2022/05/17 08:35:43;;;;;;;18.13;7.00;;;;;;;;;;5047313;28;20044;-68
2022/05/17 08:38:10;;;;;;;20.60;7.78;;;;;;;;;;5047819;28;20159;-69
2022/05/17 08:40:59;;;;;;;19.55;7.95;;;;;;;;;;5047240;28;20118;-69
2022/05/17 08:43:51;;;;;;;22.30;7.75;;;;;;;;;;5018735;28;20091;-69
2022/05/17 08:46:27;;;;;;;17.92;7.82;;;;;;;;;;5047662;28;20131;-69
2022/05/17 08:48:54;;;;;;;20.10;8.13;;;;;;;;;;5047697;28;20122;-68
2022/05/17 08:51:19;;;;;;;;;;;;;;;;;;5048105;28;20488;-68
2022/05/17 08:53:46;;;;;;;19.98;7.55;;;;;;;;;;5047022;28;20015;-72
2022/05/17 08:56:13;;;;;;;25.42;7.68;;;;;;;;;;5047589;28;20485;-71
2022/05/17 08:58:41;;;;;;;21.50;7.25;;;;;;;;;;5047071;28;20345;-69
2022/05/17 09:01:15;;;;;;;20.85;7.82;;;;;;;;;;5028584;28;20045;-69
2022/05/17 09:03:44;;;;;;;22.83;7.63;;;;;;;;;;5046928;28;20461;-70
2022/05/17 09:06:12;;;;;;;31.60;9.88;;;;;;;;;;5047208;28;20056;-69
2022/05/17 09:08:41;;;;;;;31.00;7.65;;;;;;;;;;5046872;28;20068;-69
2022/05/17 09:11:24;;;;;;;22.52;7.55;;;;;;;;;;5047210;28;20529;-69
2022/05/17 09:13:50;;;;;;;22.92;7.22;;;;;;;;;;5046768;28;20045;-69
2022/05/17 09:16:16;;;;;;;18.50;6.68;;;;;;;;;;5047952;28;20401;-70
2022/05/17 09:18:45;;;;;;;19.92;6.00;;;;;;;;;;5046657;28;20130;-68
2022/05/17 09:21:27;;;;;;;24.23;7.63;;;;;;;;;;5047078;28;20128;-70
2022/05/17 09:23:54;;;;;;;19.92;6.97;;;;;;;;;;5046560;28;20062;-70
2022/05/17 09:26:20;;;;;;;25.85;7.20;;;;;;;;;;5046361;28;20056;-70
2022/05/17 09:28:46;;;;;;;22.15;7.72;;;;;;;;;;5028298;28;20091;-69
2022/05/17 09:31:12;;;;;;;;;;;;;;;;;;5047370;28;20090;-70
2022/05/17 09:33:39;;;;;;;33.22;7.90;;;;;;;;;;5046766;28;20419;-70
2022/05/17 09:36:05;;;;;;;17.50;5.82;;;;;;;;;;5047120;28;20053;-69
2022/05/17 09:38:31;;;;;;;;;;;;;;;;;;5047130;28;20056;-69
2022/05/17 09:40:58;;;;;;;20.65;6.72;;;;;;;;;;5044210;28;19921;-69
2022/05/17 09:43:45;;;;;;;18.90;5.20;;;;;;;;;;5048386;28;20067;-69
2022/05/17 09:46:11;;;;;;;;;;;;;;;;;;5056238;28;20109;-69
2022/05/17 09:54:43;;;;;;;17.65;5.38;;;;;;;;;;5051071;28;20143;-71
2022/05/17 09:57:12;;;;;;;16.92;5.10;;;;;;;;;;5019649;28;20137;-71
2022/05/17 09:59:38;;;;;;;20.95;6.03;;;;;;;;;;5068826;28;20138;-69
2022/05/17 10:02:04;;;;;;;;;;;;;;;;;;5071037;28;20187;-71
2022/05/17 10:04:31;;;;;;;15.98;4.80;;;;;;;;;;5070600;28;20043;-70
2022/05/17 10:06:57;;;;;;;13.98;4.20;;;;;;;;;;5061187;28;20088;-70
2022/05/17 10:09:28;;;;;;;15.82;4.43;;;;;;;;;;5050506;28;20594;-72
2022/05/17 10:12:05;;;;;;;17.98;4.90;;;;;;;;;;5047598;28;20091;-71
2022/05/17 10:14:31;;;;;;;22.27;5.03;;;;;;;;;;5047793;28;20131;-71
2022/05/17 10:17:10;;;;;;;23.58;4.78;;;;;;;;;;5050094;28;20045;-70
2022/05/17 10:19:49;;;;;;;18.70;3.97;;;;;;;;;;5050393;28;20049;-69
2022/05/17 10:22:22;;;;;;;16.70;3.90;;;;;;;;;;5050280;28;20155;-72
2022/05/17 10:24:58;;;;;;;17.67;4.43;;;;;;;;;;5032069;28;20495;-71
2022/05/17 10:27:27;;;;;;;14.20;4.45;;;;;;;;;;5050214;28;20098;-72
2022/05/17 10:29:54;;;;;;;23.23;5.05;;;;;;;;;;5049989;28;20150;-72
2022/05/17 10:32:35;;;;;;;18.30;5.45;;;;;;;;;;5050097;28;20441;-70
2022/05/17 10:35:11;;;;;;;17.77;5.05;;;;;;;;;;5050533;28;20123;-71
2022/05/17 10:37:49;;;;;;;17.03;5.90;;;;;;;;;;5050104;28;20101;-70
2022/05/17 10:40:18;;;;;;;16.83;5.60;;;;;;;;;;5050057;28;20350;-69
2022/05/17 10:42:44;;;;;;;17.33;5.38;;;;;;;;;;5049587;28;20121;-70
2022/05/17 10:45:18;;;;;;;18.98;4.65;;;;;;;;;;5050105;28;20041;-70
2022/05/17 10:48:03;;;;;;;18.55;5.07;;;;;;;;;;5050279;28;20044;-71
2022/05/17 10:50:38;;;;;;;20.20;4.72;;;;;;;;;;5049924;28;20464;-72
2022/05/17 10:53:07;;;;;;;17.00;5.80;;;;;;;;;;5049528;28;20142;-70
2022/05/17 10:55:52;;;;;;;16.85;5.10;;;;;;;;;;5049652;28;20122;-69
2022/05/17 10:58:18;;;;;;;20.63;4.28;;;;;;;;;;5049970;28;20116;-70
2022/05/17 11:00:44;;;;;;;;;;;;;;;;;;5048653;28;20055;-72
2022/05/17 11:03:29;;;;;;;18.35;5.03;;;;;;;;;;5048499;28;19925;-71
2022/05/17 11:06:07;;;;;;;16.83;4.70;;;;;;;;;;5049587;28;20060;-71
2022/05/17 11:08:33;;;;;;;21.27;4.63;;;;;;;;;;5049507;28;20057;-71
2022/05/17 11:10:59;;;;;;;;;;;;;;;;;;5050188;28;20045;-73
2022/05/17 11:13:25;;;;;;;14.75;3.38;;;;;;;;;;5050232;28;20007;-73
2022/05/17 11:15:58;;;;;;;15.80;3.50;;;;;;;;;;5069049;28;20048;-71
2022/05/17 11:18:29;;;;;;;15.52;3.88;;;;;;;;;;5061375;28;20075;-73
2022/05/17 11:21:01;;;;;;;19.70;4.45;;;;;;;;;;5049017;28;20195;-73
2022/05/17 11:23:45;;;;;;;16.08;3.97;;;;;;;;;;5049807;28;20404;-71
2022/05/17 11:26:25;;;;;;;38.28;19.23;;;;;;;;;;5049318;28;20051;-73
2022/05/17 11:29:00;;;;;;;21.00;5.18;;;;;;;;;;5050651;28;20128;-73
2022/05/17 11:31:29;;;;;;;13.60;4.00;;;;;;;;;;5054638;28;20051;-72
2022/05/17 11:34:15;;;;;;;12.90;3.65;;;;;;;;;;5068455;28;20092;-70
2022/05/17 11:36:43;;;;;;;13.98;3.30;;;;;;;;;;5051277;28;20083;-74
2022/05/17 11:39:29;;;;;;;13.93;3.17;;;;;;;;;;5048939;28;20045;-74
2022/05/17 11:42:04;;;;;;;14.80;3.13;;;;;;;;;;5057382;28;20072;-74
2022/05/17 11:44:40;;;;;;;14.20;2.97;;;;;;;;;;5034372;28;20045;-69
2022/05/17 11:47:26;;;;;;;16.20;3.58;;;;;;;;;;5046276;28;20415;-74
2022/05/17 11:49:52;;;;;;;14.55;3.10;;;;;;;;;;5052611;28;20360;-69
2022/05/17 11:52:18;;;;;;;;;;;;;;;;;;5056744;28;20058;-70
2022/05/17 11:54:45;;;;;;;13.50;2.83;;;;;;;;;;5066671;28;20006;-74
2022/05/17 11:57:12;;;;;;;14.90;2.88;;;;;;;;;;5062486;28;20244;-72
2022/05/17 11:59:42;;;;;;;13.75;3.13;;;;;;;;;;5055004;28;20271;-72
2022/05/17 12:02:11;;;;;;;13.23;2.90;;;;;;;;;;5065618;28;20124;-71
2022/05/17 12:04:42;;;;;;;14.77;2.90;;;;;;;;;;5063883;28;20041;-71
2022/05/17 12:07:25;;;;;;;12.32;2.60;;;;;;;;;;5064571;28;20554;-71
2022/05/17 12:09:53;;;;;;;16.15;3.42;;;;;;;;;;5066855;28;20060;-70
2022/05/17 12:12:19;;;;;;;13.40;3.00;;;;;;;;;;5067461;28;20526;-70
2022/05/17 12:14:45;;;;;;;15.82;3.70;;;;;;;;;;5069544;28;20071;-70
2022/05/17 12:17:11;;;;;;;;;;;;;;;;;;5068431;28;20060;-71
2022/05/17 12:19:49;;;;;;;11.38;3.10;;;;;;;;;;5066845;28;19943;-70
2022/05/17 12:22:22;;;;;;;13.95;3.30;;;;;;;;;;5062977;28;20123;-70
2022/05/17 12:24:55;;;;;;;18.02;3.20;;;;;;;;;;5056770;28;20044;-72
2022/05/17 12:27:23;;;;;;;19.42;3.75;;;;;;;;;;5080188;28;20121;-72
2022/05/17 12:32:40;;;;;;;15.80;2.97;;;;;;;;;;5051854;28;20072;-72
2022/05/17 12:35:07;;;;;;;13.90;3.13;;;;;;;;;;5062227;28;20090;-71
2022/05/17 12:37:38;;;;;;;18.77;3.63;;;;;;;;;;5077897;28;20516;-70
2022/05/17 12:43:10;;;;;;;11.80;3.00;;;;;;;;;;5055902;28;20060;-75
2022/05/17 12:45:39;;;;;;;16.77;3.47;;;;;;;;;;5079428;28;20051;-71
2022/05/17 12:48:13;;;;;;;15.45;2.90;;;;;;;;;;5066915;28;20072;-75
2022/05/17 12:50:51;;;;;;;16.45;3.33;;;;;;;;;;5066208;28;20203;-72
2022/05/17 12:53:19;;;;;;;12.35;2.63;;;;;;;;;;5073827;28;20040;-72
2022/05/17 12:56:01;;;;;;;14.95;2.80;;;;;;;;;;5077968;28;20147;-73
2022/05/17 12:58:27;;;;;;;13.60;3.40;;;;;;;;;;5062487;28;20138;-72
2022/05/17 13:00:55;;;;;;;17.05;3.88;;;;;;;;;;5076128;28;20139;-72
2022/05/17 13:03:22;;;;;;;11.30;2.40;;;;;;;;;;5080559;28;20167;-71
2022/05/17 13:05:51;;;;;;;11.43;2.78;;;;;;;;;;5083561;28;20173;-71
2022/05/17 13:08:20;;;;;;;11.10;2.78;;;;;;;;;;5082366;28;20063;-73
2022/05/17 13:11:01;;;;;;;12.65;2.88;;;;;;;;;;5085189;28;20123;-73
2022/05/17 13:13:28;;;;;;;12.95;2.83;;;;;;;;;;5079977;28;20380;-74
2022/05/17 13:15:56;;;;;;;14.63;3.15;;;;;;;;;;5066365;28;20087;-73
2022/05/17 13:18:30;;;;;;;13.60;2.60;;;;;;;;;;5056934;28;20107;-73
2022/05/17 13:20:56;;;;;;;13.80;2.80;;;;;;;;;;5066960;28;20448;-74
2022/05/17 13:23:26;;;;;;;13.98;2.53;;;;;;;;;;5059077;28;20044;-73
2022/05/17 13:25:55;;;;;;;10.55;2.60;;;;;;;;;;5050034;28;20051;-71
2022/05/17 13:28:29;;;;;;;12.48;2.80;;;;;;;;;;5052294;28;20041;-72
2022/05/17 13:31:03;;;;;;;12.00;2.80;;;;;;;;;;5055571;28;20169;-70
2022/05/17 13:33:32;;;;;;;9.75;2.58;;;;;;;;;;5064385;28;20834;-72
2022/05/17 13:36:24;;;;;;;14.30;2.60;;;;;;;;;;5049625;28;20059;-71
2022/05/17 13:38:50;;;;;;;12.43;2.60;;;;;;;;;;5074579;28;20044;-71
2022/05/17 13:41:16;;;;;;;;;;;;;;;;;;5076690;28;20122;-70
2022/05/17 13:43:42;;;;;;;15.68;2.65;;;;;;;;;;5077509;28;20052;-71
2022/05/17 13:46:08;;;;;;;;;;;;;;;;;;5065852;28;20045;-70
2022/05/17 13:48:35;;;;;;;16.42;2.53;;;;;;;;;;5046074;28;19920;-72
2022/05/17 13:51:02;;;;;;;12.35;2.65;;;;;;;;;;5046731;28;20117;-73
2022/05/17 13:53:39;;;;;;;12.23;2.65;;;;;;;;;;5029161;28;20049;-72
2022/05/17 13:56:05;;;;;;;13.70;2.97;;;;;;;;;;5028358;28;20090;-72
2022/05/17 13:58:31;;;;;;;11.27;2.65;;;;;;;;;;5046755;28;20041;-71
2022/05/17 14:01:09;;;;;;;10.50;2.50;;;;;;;;;;5046637;28;20119;-71
2022/05/17 14:03:36;;;;;;;14.50;3.38;;;;;;;;;;5046471;28;20057;-71
2022/05/17 14:06:08;;;;;;;15.27;2.97;;;;;;;;;;5046243;28;20064;-72
2022/05/17 14:14:12;;;;;;;13.18;2.90;;;;;;;;;;5045973;28;20064;-73
2022/05/17 14:16:39;;;;;;;21.08;4.63;;;;;;;;;;5028678;28;20477;-72
2022/05/17 14:19:06;;;;;;;104.20;10.88;;;;;;;;;;5067123;28;20126;-71
2022/05/17 14:21:32;;;;;;;65.10;7.35;;;;;;;;;;5079451;28;20063;-71
2022/05/17 14:23:58;;;;;;;30.60;3.90;;;;;;;;;;5065794;28;20118;-71
2022/05/17 14:26:24;;;;;;;17.02;3.47;;;;;;;;;;5064358;28;20048;-71
2022/05/17 14:28:51;;;;;;;23.13;3.00;;;;;;;;;;5069271;28;20060;-71
2022/05/17 14:31:19;;;;;;;13.48;3.00;;;;;;;;;;5056586;28;20045;-78
2022/05/17 14:33:45;;;;;;;14.77;2.85;;;;;;;;;;5042413;28;20053;-78
2022/05/17 14:36:15;;;;;;;14.38;3.33;;;;;;;;;;5063897;28;20040;-77
2022/05/17 14:38:42;;;;;;;15.45;3.58;;;;;;;;;;5043184;28;20048;-77
2022/05/17 14:41:08;;;;;;;9.77;2.40;;;;;;;;;;5082240;28;20071;-78
2022/05/17 14:43:34;;;;;;;13.05;2.65;;;;;;;;;;5082866;28;20202;-77
2022/05/17 14:46:00;;;;;;;12.93;2.85;;;;;;;;;;5071407;28;20048;-77
2022/05/17 14:48:28;;;;;;;12.30;2.92;;;;;;;;;;5078945;28;20461;-77
2022/05/17 14:50:54;;;;;;;10.73;2.75;;;;;;;;;;5073063;28;20067;-77
2022/05/17 14:53:21;;;;;;;13.05;3.25;;;;;;;;;;5067865;28;20059;-78
2022/05/17 14:55:47;;;;;;;13.95;2.85;;;;;;;;;;5066730;28;20464;-78
2022/05/17 14:58:13;;;;;;;12.48;3.15;;;;;;;;;;5048915;28;20418;-78
2022/05/17 15:00:40;;;;;;;11.93;2.78;;;;;;;;;;5043232;28;20067;-78
2022/05/17 15:03:08;;;;;;;11.57;2.92;;;;;;;;;;5039603;28;20056;-78
2022/05/17 15:05:35;;;;;;;15.85;3.28;;;;;;;;;;5064214;28;20146;-72
2022/05/17 15:08:02;;;;;;;10.57;2.78;;;;;;;;;;5052873;28;20099;-74
2022/05/17 15:10:29;;;;;;;11.25;2.80;;;;;;;;;;5059953;28;20120;-73